Aviation Digital Data Service (ADDS)

Output produced by METARs form (0532 UTC 21 January 2019)
found at http://www.aviationweather.gov/metar/data/
 
Forecast for: COR
Text: TAF COR LIRA 210527Z 2106/2206 VRB06KT 8000 RA BKN040
Forecast period: 0600 UTC 21 January 2019 to 0600 UTC 22 January 2019
Forecast type: FROM: standard forecast or significant change
Winds: variable direction winds at 7 MPH (6 knots; 3.1 m/s)
Visibility: 5 miles (8 km)
Ceiling: 4000 feet AGL
Clouds: broken clouds at 4000 feet AGL
Weather: RA  (moderate rain)
Text: TEMPO 2106/2111 SHRA
Forecast period: 0600 to 1100 UTC 21 January 2019
Forecast type: TEMPORARY: The following changes expected for less than half the time period
Visibility: missing
Ceiling: unknown
Clouds: missing
Weather: SHRA  (rain showers)